Time;durP1;ratioP1;P1;durP2;ratioP2;P2;SDS_P1;SDS_P2;PMS_P1;PMS_P2;Temp;Humidity;BMP_temperature;BMP_pressure;BME280_temperature;BME280_humidity;BME280_pressure;Samples;Min_cycle;Max_cycle;Signal;HPM_P1;HPM_P2
2021/09/01 00:00:45;;;;;;;14.83;8.73;;;;;;;13.17;100.00;101517.53;4995225;28;20174;-76
2021/09/01 00:03:10;;;;;;;13.77;10.30;;;;;;;13.17;100.00;101520.22;4996702;28;20269;-76
2021/09/01 00:05:36;;;;;;;16.60;9.73;;;;;;;13.17;100.00;101522.00;4995650;28;20185;-75
2021/09/01 00:08:01;;;;;;;10.43;8.57;;;;;;;13.09;100.00;101525.06;4979268;28;20272;-75
2021/09/01 00:10:26;;;;;;;13.73;9.03;;;;;;;13.07;100.00;101530.53;4996738;28;20252;-76
2021/09/01 00:12:52;;;;;;;11.50;8.80;;;;;;;13.04;100.00;101524.47;4996260;28;20198;-76
2021/09/01 00:15:17;;;;;;;13.00;8.97;;;;;;;13.06;100.00;101533.28;4978649;28;20177;-76
2021/09/01 00:17:42;;;;;;;17.27;8.30;;;;;;;13.10;100.00;101534.84;4996113;28;20235;-75
2021/09/01 00:20:09;;;;;;;13.00;9.23;;;;;;;13.20;100.00;101530.75;4994644;28;20216;-76
2021/09/01 00:22:35;;;;;;;11.07;8.60;;;;;;;13.28;100.00;101527.66;4995343;28;20169;-77
2021/09/01 00:25:01;;;;;;;12.27;8.57;;;;;;;13.28;100.00;101528.53;4995890;28;20176;-76
2021/09/01 00:27:26;;;;;;;15.87;8.63;;;;;;;13.28;100.00;101535.72;4996148;28;20722;-76
2021/09/01 00:29:51;;;;;;;10.00;7.80;;;;;;;13.27;100.00;101531.31;4996046;28;20204;-76
2021/09/01 00:32:16;;;;;;;10.37;7.40;;;;;;;13.28;100.00;101533.91;4996803;28;20229;-76
2021/09/01 00:34:42;;;;;;;8.47;7.20;;;;;;;13.26;100.00;101540.28;4996101;28;20169;-75
2021/09/01 00:37:07;;;;;;;9.77;6.87;;;;;;;13.29;100.00;101548.16;4996499;28;20254;-76
2021/09/01 00:39:32;;;;;;;12.43;8.10;;;;;;;13.27;100.00;101550.06;4994819;28;20205;-75
2021/09/01 00:42:01;;;;;;;17.57;7.80;;;;;;;13.13;100.00;101542.72;4995002;28;20255;-76
2021/09/01 00:44:27;;;;;;;12.40;8.03;;;;;;;13.11;100.00;101541.94;4995354;28;20751;-76
2021/09/01 00:46:54;;;;;;;11.97;7.40;;;;;;;13.07;100.00;101540.38;4961590;28;20178;-76
2021/09/01 00:49:19;;;;;;;8.57;6.83;;;;;;;13.01;100.00;101544.25;4977240;28;20671;-76
2021/09/01 00:51:49;;;;;;;14.60;7.03;;;;;;;12.98;100.00;101547.06;4994873;28;20205;-76
2021/09/01 00:54:19;;;;;;;10.87;6.93;;;;;;;12.93;100.00;101556.28;4961209;28;20548;-76
2021/09/01 00:56:53;;;;;;;10.60;6.50;;;;;;;12.88;100.00;101548.47;4993815;28;20185;-76
2021/09/01 00:59:19;;;;;;;9.43;6.87;;;;;;;12.90;100.00;101557.31;4995672;28;20202;-76
2021/09/01 01:01:46;;;;;;;10.27;6.33;;;;;;;12.87;100.00;101564.63;4993549;28;20196;-76
2021/09/01 01:04:12;;;;;;;9.73;6.00;;;;;;;12.86;100.00;101557.53;4994826;28;20262;-76
2021/09/01 01:06:37;;;;;;;8.93;5.67;;;;;;;12.84;100.00;101550.44;4995048;28;20206;-77
2021/09/01 01:09:02;;;;;;;10.60;6.10;;;;;;;12.89;100.00;101557.38;4994470;28;20364;-76
2021/09/01 01:11:28;;;;;;;9.60;6.37;;;;;;;12.96;100.00;101553.44;4994154;28;20220;-76
2021/09/01 01:13:53;;;;;;;9.17;6.33;;;;;;;12.99;100.00;101554.13;4994034;28;20505;-75
2021/09/01 01:16:22;;;;;;;11.53;6.70;;;;;;;12.93;100.00;101553.59;4999565;28;20173;-75
2021/09/01 01:18:49;;;;;;;11.03;6.43;;;;;;;12.85;100.00;101551.31;4984402;28;20671;-75
2021/09/01 01:21:28;;;;;;;10.43;6.20;;;;;;;12.76;100.00;101547.31;4997708;28;20216;-75
2021/09/01 01:24:00;;;;;;;7.43;5.57;;;;;;;12.73;100.00;101559.97;4999216;28;20207;-75
2021/09/01 01:26:27;;;;;;;12.90;5.87;;;;;;;12.79;100.00;101563.22;5001578;28;20264;-74
2021/09/01 01:28:55;;;;;;;7.57;5.50;;;;;;;12.74;100.00;101561.72;4983799;28;20205;-76
2021/09/01 01:31:21;;;;;;;8.17;5.40;;;;;;;12.75;100.00;101558.97;4998131;28;20193;-76
2021/09/01 01:33:46;;;;;;;7.90;5.50;;;;;;;12.78;100.00;101560.63;4980899;28;20177;-76
2021/09/01 01:36:11;;;;;;;7.30;5.97;;;;;;;12.79;100.00;101557.84;4995763;28;20183;-75
2021/09/01 01:38:37;;;;;;;8.60;5.50;;;;;;;12.86;100.00;101570.94;5026443;23;20595;-67
2021/09/01 01:41:02;;;;;;;9.07;6.00;;;;;;;12.86;100.00;101568.25;4997020;28;20181;-69
2021/09/01 01:43:31;;;;;;;11.57;5.90;;;;;;;12.81;100.00;101561.31;4996811;28;20177;-68
2021/09/01 01:45:56;;;;;;;8.10;5.53;;;;;;;12.81;100.00;101565.81;4996771;28;20213;-68
2021/09/01 01:48:21;;;;;;;7.90;5.63;;;;;;;12.81;100.00;101557.78;4996740;28;20252;-68
2021/09/01 01:50:47;;;;;;;8.67;5.37;;;;;;;12.82;100.00;101562.19;4995956;28;20177;-68
2021/09/01 01:53:12;;;;;;;11.73;5.67;;;;;;;12.84;100.00;101555.81;4979248;28;20213;-68
2021/09/01 01:55:38;;;;;;;10.77;5.63;;;;;;;12.83;100.00;101553.22;4995518;28;20177;-67
2021/09/01 01:58:03;;;;;;;8.33;5.33;;;;;;;12.77;100.00;101559.75;4996296;28;20185;-68
2021/09/01 02:00:28;;;;;;;9.27;5.50;;;;;;;12.81;100.00;101558.66;4979294;28;20185;-68
2021/09/01 02:02:54;;;;;;;8.97;4.90;;;;;;;12.78;100.00;101556.13;4996973;28;20628;-67
2021/09/01 02:05:19;;;;;;;12.50;5.33;;;;;;;12.78;100.00;101564.16;4995783;28;20256;-68
2021/09/01 02:07:44;;;;;;;8.50;5.07;;;;;;;12.83;100.00;101563.91;4995596;28;20212;-68
2021/09/01 02:10:10;;;;;;;10.57;5.23;;;;;;;12.84;100.00;101568.34;4996007;28;20202;-67
2021/09/01 02:12:37;;;;;;;7.70;5.30;;;;;;;12.81;100.00;101560.44;4995034;28;20204;-68
2021/09/01 02:15:04;;;;;;;8.47;5.43;;;;;;;12.78;100.00;101553.44;4997423;28;20619;-67
2021/09/01 02:17:30;;;;;;;9.17;5.30;;;;;;;12.75;100.00;101556.28;4996237;28;20216;-67
2021/09/01 02:19:55;;;;;;;7.27;5.33;;;;;;;12.67;100.00;101555.81;4996130;28;20606;-69
2021/09/01 02:22:21;;;;;;;9.17;5.77;;;;;;;12.59;100.00;101560.66;4978560;28;20177;-67
2021/09/01 02:24:47;;;;;;;11.90;4.87;;;;;;;12.52;100.00;101553.88;4995163;28;20520;-67
2021/09/01 02:27:12;;;;;;;7.10;4.90;;;;;;;12.43;100.00;101565.03;4995452;28;20604;-68
2021/09/01 02:29:37;;;;;;;5.20;4.33;;;;;;;12.32;100.00;101568.25;4995497;28;20279;-68
2021/09/01 02:32:04;;;;;;;8.00;4.77;;;;;;;12.25;100.00;101571.28;4996189;28;20205;-68
2021/09/01 02:34:29;;;;;;;9.10;4.97;;;;;;;12.17;100.00;101572.50;4995613;28;20652;-67
2021/09/01 02:36:54;;;;;;;8.13;5.23;;;;;;;12.13;100.00;101567.38;4978171;28;20332;-69
2021/09/01 02:39:19;;;;;;;5.53;4.20;;;;;;;12.13;100.00;101570.06;4995789;28;20221;-68
2021/09/01 02:41:45;;;;;;;6.80;5.33;;;;;;;12.15;100.00;101561.00;4996111;28;20182;-68
2021/09/01 02:44:10;;;;;;;9.43;5.47;;;;;;;12.18;100.00;101560.00;4994995;28;20592;-66
2021/09/01 02:46:35;;;;;;;6.30;5.10;;;;;;;12.21;100.00;101559.84;4994717;28;20185;-67
2021/09/01 02:49:01;;;;;;;11.53;6.27;;;;;;;12.21;100.00;101560.72;4978070;28;20211;-67
2021/09/01 02:51:26;;;;;;;8.23;5.00;;;;;;;12.17;100.00;101563.63;4995813;28;20240;-68
2021/09/01 02:53:52;;;;;;;6.77;4.93;;;;;;;12.24;100.00;101566.84;4995704;28;20189;-67
2021/09/01 02:56:17;;;;;;;9.20;5.20;;;;;;;12.24;100.00;101569.53;4996462;28;20173;-68
2021/09/01 02:58:42;;;;;;;7.30;4.97;;;;;;;12.30;100.00;101559.44;4996362;28;20194;-66
2021/09/01 03:01:07;;;;;;;8.43;5.50;;;;;;;12.28;100.00;101557.78;4995827;28;20293;-67
2021/09/01 03:03:33;;;;;;;7.23;4.60;;;;;;;12.37;100.00;101557.31;5002510;28;20287;-68
2021/09/01 03:05:58;;;;;;;7.70;5.10;;;;;;;12.41;100.00;101550.88;5002249;28;20189;-68
2021/09/01 03:08:23;;;;;;;16.20;5.97;;;;;;;12.36;100.00;101552.91;4999863;28;20193;-69
2021/09/01 03:10:49;;;;;;;10.67;5.37;;;;;;;12.46;100.00;101556.84;4995105;28;20189;-67
2021/09/01 03:13:14;;;;;;;6.67;5.50;;;;;;;12.46;100.00;101552.38;4994892;28;20236;-68
2021/09/01 03:15:39;;;;;;;9.10;5.07;;;;;;;12.47;100.00;101535.38;4995370;28;20281;-68
2021/09/01 03:18:05;;;;;;;7.00;4.30;;;;;;;12.34;100.00;101544.09;4994809;28;20173;-68
2021/09/01 03:20:30;;;;;;;8.13;5.53;;;;;;;12.38;100.00;101548.34;4993675;28;20184;-68
2021/09/01 03:22:55;;;;;;;9.77;4.60;;;;;;;12.47;100.00;101555.91;4994954;28;20652;-68
2021/09/01 03:25:21;;;;;;;7.57;5.23;;;;;;;12.40;100.00;101551.81;4993763;28;20315;-68
2021/09/01 03:27:46;;;;;;;11.30;4.50;;;;;;;12.55;100.00;101566.25;4994723;28;20174;-68
2021/09/01 03:30:12;;;;;;;10.17;4.73;;;;;;;12.56;100.00;101557.25;4994609;28;20224;-68
2021/09/01 03:32:37;;;;;;;8.47;4.90;;;;;;;12.50;100.00;101566.47;4994611;28;20571;-68
2021/09/01 03:35:03;;;;;;;7.30;4.83;;;;;;;12.44;100.00;101564.09;4994730;28;20651;-68
2021/09/01 03:37:29;;;;;;;8.47;5.03;;;;;;;12.43;100.00;101573.94;4994386;28;20184;-67
2021/09/01 03:39:54;;;;;;;7.83;5.33;;;;;;;12.43;100.00;101570.41;4977835;28;20206;-72
2021/09/01 03:42:19;;;;;;;6.23;4.33;;;;;;;12.36;100.00;101574.31;4994785;28;20174;-72
2021/09/01 03:44:45;;;;;;;8.53;4.70;;;;;;;12.27;100.00;101575.63;4996440;28;20181;-73
2021/09/01 03:47:10;;;;;;;7.83;5.13;;;;;;;12.19;100.00;101575.97;4996417;28;20543;-73
2021/09/01 03:49:35;;;;;;;6.40;4.73;;;;;;;12.13;100.00;101570.94;4995840;28;20198;-72
2021/09/01 03:52:00;;;;;;;7.50;4.90;;;;;;;12.11;100.00;101575.50;4994609;28;20285;-72
2021/09/01 03:54:27;;;;;;;7.37;4.77;;;;;;;12.14;100.00;101580.69;4994613;28;20182;-72
2021/09/01 03:56:52;;;;;;;8.77;4.83;;;;;;;12.16;100.00;101586.84;4996021;28;20189;-72
2021/09/01 03:59:17;;;;;;;8.67;4.77;;;;;;;12.17;100.00;101593.06;4995614;28;20197;-68
2021/09/01 04:01:43;;;;;;;7.33;5.10;;;;;;;12.15;100.00;101593.13;4977159;28;20591;-68
2021/09/01 04:04:08;;;;;;;7.00;4.90;;;;;;;12.13;100.00;101597.69;4995218;28;20177;-67
2021/09/01 04:06:34;;;;;;;9.43;5.50;;;;;;;12.26;100.00;101599.78;4995075;28;20173;-67
2021/09/01 04:09:00;;;;;;;9.73;5.50;;;;;;;12.27;100.00;101604.22;4994376;28;20194;-68
2021/09/01 04:11:25;;;;;;;10.00;6.97;;;;;;;12.27;100.00;101596.19;4994453;28;20261;-67
2021/09/01 04:13:51;;;;;;;8.40;5.13;;;;;;;12.37;100.00;101598.34;4977454;28;20632;-68
2021/09/01 04:16:16;;;;;;;10.10;5.67;;;;;;;12.44;100.00;101593.56;4993964;28;20174;-68
2021/09/01 04:18:42;;;;;;;7.80;4.83;;;;;;;12.39;100.00;101595.59;4992773;28;20336;-68
2021/09/01 04:21:08;;;;;;;9.70;5.30;;;;;;;12.41;100.00;101599.06;4992948;28;20169;-68
2021/09/01 04:23:33;;;;;;;11.47;5.60;;;;;;;12.49;100.00;101596.88;4992925;28;20184;-67
2021/09/01 04:25:58;;;;;;;8.40;4.83;;;;;;;12.36;100.00;101595.75;4992806;28;20218;-68
2021/09/01 04:28:24;;;;;;;6.97;5.30;;;;;;;12.33;100.00;101593.22;4994076;28;20216;-68
2021/09/01 04:30:49;;;;;;;9.70;5.83;;;;;;;12.27;100.00;101604.22;4994290;28;20189;-68
2021/09/01 04:33:14;;;;;;;5.77;4.90;;;;;;;12.25;100.00;101598.91;4976471;28;20209;-68
2021/09/01 04:35:40;;;;;;;7.50;4.60;;;;;;;12.26;100.00;101606.00;4994035;28;20651;-68
2021/09/01 04:38:05;;;;;;;12.77;4.97;;;;;;;12.23;100.00;101605.28;4993434;28;20361;-67
2021/09/01 04:40:30;;;;;;;6.07;4.67;;;;;;;12.19;100.00;101605.41;4994099;28;20174;-68
2021/09/01 04:42:56;;;;;;;7.77;4.57;;;;;;;12.20;100.00;101598.25;4994039;28;20535;-67
2021/09/01 04:45:21;;;;;;;6.97;4.50;;;;;;;12.18;100.00;101603.69;4998099;28;20312;-66
2021/09/01 04:47:47;;;;;;;8.23;5.73;;;;;;;12.23;100.00;101610.63;4993535;28;20178;-68
2021/09/01 04:50:12;;;;;;;9.77;5.33;;;;;;;12.25;100.00;101608.75;4994478;28;20201;-67
2021/09/01 04:52:38;;;;;;;8.60;5.17;;;;;;;12.26;100.00;101611.34;4996139;28;20571;-68
2021/09/01 04:55:04;;;;;;;7.33;4.93;;;;;;;12.33;100.00;101617.31;4980973;28;20189;-68
2021/09/01 04:57:29;;;;;;;7.93;5.47;;;;;;;12.38;100.00;101610.78;4997827;28;20249;-68
2021/09/01 04:59:55;;;;;;;6.97;5.40;;;;;;;12.41;100.00;101617.78;4997481;28;20280;-68
2021/09/01 05:02:20;;;;;;;7.93;5.50;;;;;;;12.47;100.00;101614.81;4998323;28;20204;-68
2021/09/01 05:04:45;;;;;;;6.10;4.20;;;;;;;12.52;100.00;101628.84;5004823;28;20174;-67
2021/09/01 05:07:10;;;;;;;10.47;5.30;;;;;;;12.67;100.00;101624.56;5004770;28;20548;-67
2021/09/01 05:09:36;;;;;;;7.30;5.40;;;;;;;12.80;100.00;101614.97;4999105;28;20200;-66
2021/09/01 05:12:01;;;;;;;10.97;5.60;;;;;;;12.90;100.00;101608.22;4999715;28;20205;-66
2021/09/01 05:14:26;;;;;;;6.73;5.33;;;;;;;12.95;100.00;101611.53;5000996;28;20206;-64
2021/09/01 05:16:52;;;;;;;7.43;4.67;;;;;;;13.09;100.00;101608.16;4997893;28;20182;-66
2021/09/01 05:19:17;;;;;;;7.33;5.37;;;;;;;13.22;100.00;101611.97;4996673;28;20197;-68
2021/09/01 05:21:50;;;;;;;11.00;5.83;;;;;;;13.34;100.00;101610.44;4997892;28;20578;-67
2021/09/01 05:24:44;;;;;;;7.47;4.90;;;;;;;13.38;100.00;101612.94;4997632;28;20216;-67
2021/09/01 05:27:17;;;;;;;11.00;5.20;;;;;;;13.45;100.00;101616.16;4997867;28;20170;-68
2021/09/01 05:29:44;;;;;;;9.60;5.13;;;;;;;13.53;100.00;101619.28;4997934;28;20194;-69
2021/09/01 05:32:20;;;;;;;7.00;4.63;;;;;;;13.61;100.00;101624.25;4980079;28;20689;-67
2021/09/01 05:34:47;;;;;;;6.80;4.57;;;;;;;13.66;100.00;101635.59;4998460;28;20197;-67
2021/09/01 05:37:13;;;;;;;8.97;5.60;;;;;;;13.70;100.00;101642.50;4997483;28;20189;-67
2021/09/01 05:39:43;;;;;;;6.53;5.03;;;;;;;13.59;100.00;101640.41;4980752;28;20721;-67
2021/09/01 05:42:11;;;;;;;9.23;5.53;;;;;;;13.61;100.00;101648.38;4996892;28;20620;-67
2021/09/01 05:44:37;;;;;;;5.53;4.27;;;;;;;13.76;100.00;101642.22;4996223;28;20188;-67
2021/09/01 05:47:03;;;;;;;6.80;4.70;;;;;;;13.88;100.00;101638.88;4995551;28;20232;-67
2021/09/01 05:49:28;;;;;;;7.50;4.43;;;;;;;13.98;100.00;101650.81;4996865;28;20209;-68
2021/09/01 05:51:54;;;;;;;6.77;4.83;;;;;;;14.07;100.00;101662.88;4995269;28;20201;-68
2021/09/01 05:54:19;;;;;;;7.30;4.93;;;;;;;14.17;100.00;101657.91;4996699;28;20181;-67
2021/09/01 05:56:48;;;;;;;5.73;4.40;;;;;;;14.20;100.00;101655.91;4996675;28;20196;-67
2021/09/01 05:59:17;;;;;;;6.47;4.13;;;;;;;14.32;100.00;101655.22;4963215;28;20709;-67
2021/09/01 06:01:44;;;;;;;7.40;4.57;;;;;;;14.41;100.00;101656.53;4996498;28;20223;-68
2021/09/01 06:04:10;;;;;;;5.67;4.40;;;;;;;14.52;100.00;101662.22;4994180;28;20273;-68
2021/09/01 06:06:39;;;;;;;7.33;4.57;;;;;;;14.51;100.00;101665.00;4995046;28;20212;-68
2021/09/01 06:09:08;;;;;;;5.17;4.10;;;;;;;14.72;100.00;101665.56;4996360;28;20256;-67
2021/09/01 06:11:35;;;;;;;6.70;4.60;;;;;;;14.72;100.00;101662.88;4979619;28;20244;-67
2021/09/01 06:14:00;;;;;;;6.33;4.70;;;;;;;14.60;100.00;101668.00;4996949;28;20205;-67
2021/09/01 06:16:25;;;;;;;5.33;4.50;;;;;;;14.74;100.00;101667.22;4996525;28;20544;-68
2021/09/01 06:18:51;;;;;;;7.70;3.90;;;;;;;14.88;100.00;101677.19;4996452;28;20205;-68
2021/09/01 06:21:16;;;;;;;8.53;4.63;;;;;;;15.06;99.40;101681.50;4979059;28;20240;-68
2021/09/01 06:23:42;;;;;;;7.77;4.80;;;;;;;15.14;98.95;101692.66;4996824;28;20174;-67
2021/09/01 06:26:07;;;;;;;9.90;5.50;;;;;;;14.80;100.00;101695.56;4996622;28;20654;-68
2021/09/01 06:28:32;;;;;;;8.13;4.50;;;;;;;14.92;100.00;101685.00;4995708;28;20713;-68
2021/09/01 06:30:57;;;;;;;6.73;4.70;;;;;;;15.12;100.00;101683.81;4978725;28;20643;-67
2021/09/01 06:33:23;;;;;;;9.37;5.03;;;;;;;15.16;100.00;101696.13;4996607;28;20210;-69
2021/09/01 06:35:49;;;;;;;5.87;4.60;;;;;;;15.21;100.00;101696.72;4995108;28;20213;-68
2021/09/01 06:38:14;;;;;;;5.80;4.73;;;;;;;15.32;100.00;101691.59;4995651;28;20189;-68
2021/09/01 06:40:39;;;;;;;7.07;4.33;;;;;;;15.47;100.00;101697.00;4995720;28;20158;-68
2021/09/01 06:43:05;;;;;;;8.43;5.67;;;;;;;15.36;100.00;101694.97;4977868;28;20170;-68
2021/09/01 06:45:30;;;;;;;6.17;4.73;;;;;;;15.56;100.00;101700.00;4995749;28;20205;-68
2021/09/01 06:47:56;;;;;;;8.00;5.53;;;;;;;15.65;100.00;101706.72;4995938;28;20185;-67
2021/09/01 06:50:25;;;;;;;8.93;5.50;;;;;;;15.87;100.00;101692.81;4995508;28;20301;-68
2021/09/01 06:52:51;;;;;;;9.27;5.83;;;;;;;15.86;99.93;101697.31;4995195;28;20248;-68
2021/09/01 06:55:17;;;;;;;8.87;5.80;;;;;;;15.85;100.00;101698.28;4995004;28;20170;-68
2021/09/01 06:57:43;;;;;;;9.23;6.27;;;;;;;15.58;100.00;101699.94;4995195;28;20178;-66
2021/09/01 07:00:10;;;;;;;13.47;7.03;;;;;;;15.56;100.00;101707.22;4977452;28;20200;-68
2021/09/01 07:02:36;;;;;;;11.00;7.03;;;;;;;15.41;100.00;101697.38;4993883;28;20224;-68
2021/09/01 07:05:02;;;;;;;12.47;7.23;;;;;;;15.31;100.00;101703.31;4993982;28;20173;-68
2021/09/01 07:07:27;;;;;;;14.53;7.70;;;;;;;15.28;100.00;101708.88;4977335;28;20548;-67
2021/09/01 07:09:52;;;;;;;12.17;7.70;;;;;;;15.26;100.00;101712.63;4995364;28;20204;-68
2021/09/01 07:12:18;;;;;;;15.27;7.43;;;;;;;15.38;100.00;101709.19;4994894;28;20745;-67
2021/09/01 07:14:43;;;;;;;11.53;7.33;;;;;;;15.37;100.00;101706.59;4994644;28;20181;-69
2021/09/01 07:17:08;;;;;;;16.03;7.47;;;;;;;15.87;100.00;101715.22;4993920;28;20616;-69
2021/09/01 07:19:34;;;;;;;12.67;6.87;;;;;;;16.04;100.00;101716.88;4994937;28;20280;-67
2021/09/01 07:21:59;;;;;;;9.30;5.93;;;;;;;15.85;100.00;101724.34;4994767;28;20170;-67
2021/09/01 07:24:25;;;;;;;8.07;6.53;;;;;;;16.05;100.00;101709.66;4995419;28;20593;-68
2021/09/01 07:26:50;;;;;;;7.93;5.80;;;;;;;16.30;100.00;101715.22;4993636;28;20699;-68
2021/09/01 07:29:15;;;;;;;9.97;6.80;;;;;;;16.27;100.00;101720.81;4994912;28;20201;-68
2021/09/01 07:31:41;;;;;;;11.33;6.50;;;;;;;16.41;100.00;101723.53;4994825;28;20249;-68
2021/09/01 07:34:06;;;;;;;10.23;6.17;;;;;;;16.27;100.00;101731.59;4994099;28;20173;-68
2021/09/01 07:36:31;;;;;;;10.83;7.07;;;;;;;16.23;100.00;101736.31;4994164;28;20173;-68
2021/09/01 07:38:57;;;;;;;12.70;6.20;;;;;;;16.27;100.00;101732.47;5020684;23;20640;-76
2021/09/01 07:41:22;;;;;;;14.40;6.97;;;;;;;16.32;100.00;101740.25;4979034;28;20567;-76
2021/09/01 07:43:47;;;;;;;11.53;6.40;;;;;;;16.47;100.00;101736.59;4996123;28;20647;-75
2021/09/01 07:46:13;;;;;;;12.27;7.00;;;;;;;16.77;98.17;101741.03;4996335;28;20232;-76
2021/09/01 07:48:38;;;;;;;9.83;5.90;;;;;;;16.83;97.42;101749.59;4979596;28;20181;-76
2021/09/01 07:51:03;;;;;;;11.10;6.67;;;;;;;16.90;95.96;101758.16;4978804;28;20536;-76
2021/09/01 07:53:28;;;;;;;13.03;6.90;;;;;;;16.73;97.01;101763.78;4996701;28;20205;-76
2021/09/01 07:55:54;;;;;;;10.17;6.33;;;;;;;16.74;97.77;101766.38;4994629;28;20186;-76
2021/09/01 07:58:19;;;;;;;10.57;6.67;;;;;;;16.63;98.42;101763.44;4994858;28;20186;-77
2021/09/01 08:00:45;;;;;;;8.57;6.33;;;;;;;16.28;100.00;101760.25;4978770;28;20207;-76
2021/09/01 08:03:10;;;;;;;10.20;6.27;;;;;;;16.55;100.00;101772.00;4979515;28;20184;-76
2021/09/01 08:05:36;;;;;;;10.80;6.83;;;;;;;16.29;100.00;101778.16;4997186;28;20181;-76
2021/09/01 08:08:01;;;;;;;10.30;6.50;;;;;;;16.53;100.00;101781.16;4979103;28;20189;-77
2021/09/01 08:10:26;;;;;;;8.37;6.13;;;;;;;17.03;98.81;101785.19;4994738;28;20209;-77
2021/09/01 08:12:51;;;;;;;15.30;6.63;;;;;;;17.08;94.64;101785.72;4996548;28;20228;-77
2021/09/01 08:15:17;;;;;;;11.03;6.67;;;;;;;16.98;94.85;101793.56;4994821;28;20169;-76
2021/09/01 08:17:42;;;;;;;7.93;5.03;;;;;;;17.37;94.65;101795.50;4995756;28;20173;-76
2021/09/01 08:20:08;;;;;;;9.20;5.67;;;;;;;17.63;92.45;101792.91;4995914;28;20197;-77
2021/09/01 08:22:37;;;;;;;9.20;6.10;;;;;;;17.65;91.19;101794.53;4996475;28;20627;-76
2021/09/01 08:25:03;;;;;;;11.50;6.67;;;;;;;17.97;88.96;101789.66;4996118;28;20177;-77
2021/09/01 08:27:29;;;;;;;9.23;6.57;;;;;;;18.05;88.20;101792.69;4996187;28;20201;-77
2021/09/01 08:29:55;;;;;;;7.00;5.60;;;;;;;18.41;86.89;101801.91;4995288;28;20650;-75
2021/09/01 08:32:20;;;;;;;10.23;5.23;;;;;;;18.92;84.45;101805.44;4998768;28;20237;-76
2021/09/01 08:34:46;;;;;;;7.83;5.50;;;;;;;18.93;82.84;101811.72;4995602;28;20264;-77
2021/09/01 08:37:11;;;;;;;8.83;5.80;;;;;;;19.11;80.37;101809.53;4994190;28;20177;-76
2021/09/01 08:39:37;;;;;;;7.27;5.47;;;;;;;19.21;80.44;101805.16;4995380;28;20655;-76
2021/09/01 08:42:02;;;;;;;7.00;5.00;;;;;;;19.47;78.85;101814.94;4996123;28;20252;-76
2021/09/01 08:44:28;;;;;;;10.40;5.97;;;;;;;19.56;78.51;101813.41;4977937;28;20628;-76
2021/09/01 08:46:57;;;;;;;8.90;5.20;;;;;;;19.66;77.41;101817.13;4978091;28;20192;-76
2021/09/01 08:49:23;;;;;;;10.30;5.53;;;;;;;19.25;78.76;101821.06;4977642;28;20200;-76
2021/09/01 08:51:49;;;;;;;8.13;4.83;;;;;;;19.51;78.40;101829.97;4977944;28;20206;-76
2021/09/01 08:54:15;;;;;;;6.60;4.87;;;;;;;19.80;76.67;101827.81;4979262;28;20253;-76
2021/09/01 08:56:41;;;;;;;11.40;5.03;;;;;;;19.54;77.71;101824.34;4996937;28;20177;-77
2021/09/01 08:59:07;;;;;;;10.20;5.10;;;;;;;18.94;78.54;101818.88;4995066;28;20328;-77
2021/09/01 09:01:45;;;;;;;7.97;5.10;;;;;;;18.91;78.96;101822.66;4977675;28;20174;-76
2021/09/01 09:04:16;;;;;;;13.43;4.70;;;;;;;18.49;81.89;101833.78;4977191;28;20648;-77
2021/09/01 09:06:50;;;;;;;7.97;5.17;;;;;;;18.60;81.64;101829.38;4994397;28;20181;-76
2021/09/01 09:09:18;;;;;;;8.57;4.70;;;;;;;18.74;83.65;101832.00;5000607;28;20193;-76
2021/09/01 09:11:45;;;;;;;7.20;4.77;;;;;;;18.77;80.93;101827.34;5011673;28;20232;-76
2021/09/01 09:14:23;;;;;;;7.00;4.40;;;;;;;19.85;76.20;101836.44;5001603;28;20177;-76
2021/09/01 09:17:09;;;;;;;7.60;4.60;;;;;;;19.29;77.87;101825.25;4996630;28;20672;-76
2021/09/01 09:20:03;;;;;;;9.63;4.43;;;;;;;19.31;78.54;101828.72;4996688;28;20551;-76
2021/09/01 09:22:36;;;;;;;8.83;4.80;;;;;;;19.35;78.91;101824.84;4977079;28;20563;-76
2021/09/01 09:25:15;;;;;;;6.43;4.27;;;;;;;19.84;77.92;101826.59;4977784;28;20252;-77
2021/09/01 09:27:48;;;;;;;7.77;4.43;;;;;;;19.50;77.08;101819.25;4995427;28;20265;-76
2021/09/01 09:30:20;;;;;;;7.60;4.40;;;;;;;19.23;78.25;101814.91;4961810;28;20683;-77
2021/09/01 09:33:06;;;;;;;9.43;5.40;;;;;;;19.37;77.65;101811.19;4994593;28;20198;-76
2021/09/01 09:35:50;;;;;;;6.07;4.90;;;;;;;20.14;73.91;101820.66;4977905;28;20208;-76
2021/09/01 09:38:25;;;;;;;6.77;4.00;;;;;;;19.42;75.87;101814.41;4982476;28;20178;-76
2021/09/01 09:40:50;;;;;;;5.27;3.87;;;;;;;20.29;72.89;101811.31;4981047;28;20200;-75
2021/09/01 09:43:20;;;;;;;7.33;4.70;;;;;;;19.62;75.64;101811.09;4998452;28;20176;-76
2021/09/01 09:45:47;;;;;;;7.37;4.30;;;;;;;20.11;75.98;101807.34;4998637;28;20166;-76
2021/09/01 09:48:12;;;;;;;8.00;4.27;;;;;;;20.37;74.07;101812.56;4999391;28;20178;-77
2021/09/01 09:50:45;;;;;;;5.67;3.63;;;;;;;20.21;74.56;101810.19;5000498;28;20329;-76
2021/09/01 09:53:11;;;;;;;7.40;4.47;;;;;;;20.65;74.12;101809.44;4998287;28;20190;-76
2021/09/01 09:55:36;;;;;;;7.10;4.20;;;;;;;20.88;72.45;101813.88;4998322;28;20521;-76
2021/09/01 09:58:02;;;;;;;5.77;3.97;;;;;;;21.20;71.14;101816.69;4980620;28;20185;-76
2021/09/01 10:00:28;;;;;;;5.13;3.90;;;;;;;21.47;69.74;101815.41;4980654;28;20197;-77
2021/09/01 10:02:54;;;;;;;6.43;3.97;;;;;;;21.03;70.55;101811.75;4990232;28;20210;-76
2021/09/01 10:05:22;;;;;;;8.90;4.37;;;;;;;21.04;71.40;101804.47;4991814;28;20177;-76
2021/09/01 10:07:47;;;;;;;6.50;3.63;;;;;;;22.11;68.22;101816.28;5003180;28;20686;-76
2021/09/01 10:10:13;;;;;;;5.57;3.87;;;;;;;22.55;66.28;101808.81;4997858;28;20193;-76
2021/09/01 10:12:43;;;;;;;6.70;3.77;;;;;;;22.91;65.05;101820.19;4997734;28;20198;-76
2021/09/01 10:15:22;;;;;;;6.00;3.63;;;;;;;22.68;65.11;101809.47;4980203;28;20207;-76
2021/09/01 10:17:48;;;;;;;5.50;3.70;;;;;;;21.33;69.43;101812.97;4980348;28;20687;-75
2021/09/01 10:20:18;;;;;;;6.53;3.60;;;;;;;21.10;69.63;101812.13;4963925;28;20228;-76
2021/09/01 10:22:43;;;;;;;5.87;3.73;;;;;;;21.08;68.54;101819.53;4979975;28;20696;-76
2021/09/01 10:25:09;;;;;;;7.03;3.63;;;;;;;21.62;67.47;101818.72;4996849;28;20174;-76
2021/09/01 10:27:34;;;;;;;5.33;3.70;;;;;;;22.55;64.76;101813.41;4979961;28;20293;-76
2021/09/01 10:30:05;;;;;;;5.93;3.47;;;;;;;22.36;64.84;101806.00;4996996;28;20205;-76
2021/09/01 10:32:43;;;;;;;4.83;3.47;;;;;;;22.89;62.18;101811.31;4980153;28;20204;-76
2021/09/01 10:35:12;;;;;;;6.50;3.13;;;;;;;22.74;62.81;101808.06;4980711;28;20177;-76
2021/09/01 10:37:39;;;;;;;8.93;3.40;;;;;;;20.97;69.02;101812.25;4998115;28;20181;-76
2021/09/01 10:40:10;;;;;;;6.67;3.63;;;;;;;21.47;69.17;101818.13;4998187;28;20757;-76
2021/09/01 10:42:43;;;;;;;4.63;3.53;;;;;;;22.21;66.85;101813.63;4997936;28;20154;-76
2021/09/01 10:45:14;;;;;;;4.73;3.37;;;;;;;22.73;63.64;101814.50;4997530;28;20278;-77
2021/09/01 10:47:51;;;;;;;5.47;3.13;;;;;;;22.15;64.76;101820.47;4997647;28;20241;-76
2021/09/01 10:50:22;;;;;;;6.63;3.87;;;;;;;22.31;63.50;101805.56;4979001;28;20201;-77
2021/09/01 10:53:09;;;;;;;6.57;3.70;;;;;;;21.84;63.19;101810.44;4997271;28;20209;-76
2021/09/01 10:55:53;;;;;;;4.57;3.33;;;;;;;21.68;64.01;101802.75;4980415;28;20162;-76
2021/09/01 10:58:24;;;;;;;8.27;3.30;;;;;;;21.77;65.89;101807.41;4996097;28;20170;-77
2021/09/01 11:00:54;;;;;;;6.23;3.40;;;;;;;22.37;64.66;101810.47;4996037;28;20229;-77
2021/09/01 11:03:33;;;;;;;4.63;3.00;;;;;;;22.92;62.77;101805.59;4996935;28;20631;-77
2021/09/01 11:06:16;;;;;;;4.70;3.57;;;;;;;22.44;63.17;101812.50;4995632;28;20626;-77
2021/09/01 11:08:59;;;;;;;5.07;3.30;;;;;;;23.64;59.73;101814.38;4996515;28;20166;-76
2021/09/01 11:11:45;;;;;;;4.27;3.20;;;;;;;23.88;60.37;101821.28;5010118;28;20300;-76
2021/09/01 11:14:13;;;;;;;4.43;3.30;;;;;;;22.89;61.87;101817.63;4999695;28;20178;-77
2021/09/01 11:16:39;;;;;;;5.83;3.37;;;;;;;25.65;53.95;101815.78;4979549;28;20228;-76